Valley, Washington
Current Conditions -  °F | °C
As of 2:53 AM on Saturday 25 Oct 2014 (Local Time) from KDEW Reporting Station
Clear Clear  
Wind Chill: 41°   Ceiling: Unl
Heat Index: 47°   Visibility: 10mi
Dew Point: 40°   Wind: 15mph
Humidity: 77%   Direction: 30°NNE
Pressure: 29.85"   Gusts: NA
Location:  48.17°N, 117.73°W
Report Text: KDEW 250953Z AUTO 03013KT 10SM CLR 08/04 A2985 RMK AO2 SLP111 T00830044
Loading
Personal Weather Stations






























Interactive Weather Map
Tropical Storm Tracking
New forecast layout! Learn more

10-Day Weather Forecast

Advertisements
Track Severe Weather on mobile